Terminal Aerodrome Forecast
Issued by NWS Springfield, MO

Home | Current Version | Previous Version | Text Only | Print | Product List | Glossary On
Versions: 1 2 3 4 5 6 7 8 9 10 11 12 13 14 15 16 17 18 19 20
000
FTUS43 KSGF 211100
TAFSGF
TAF
KSGF 211120Z 2112/2212 VRB04KT P6SM BKN035 OVC070
      TEMPO 2112/2114 3SM -SHRA BR SCT015 OVC025
     FM211500 23008KT 5SM -SHRA SCT015 OVC025
     FM212100 29010KT P6SM -SHRA VCTS BKN040CB OVC120
     FM220100 32005KT P6SM BKN100
     FM220700 34005KT P6SM SKC=

USA.gov is the U.S. government's official web portal to all federal, state and local government web resources and services.